Time;durP1;ratioP1;P1;durP2;ratioP2;P2;SDS_P1;SDS_P2;PMS_P1;PMS_P2;Temp;Humidity;BMP_temperature;BMP_pressure;BME280_temperature;BME280_humidity;BME280_pressure;Samples;Min_cycle;Max_cycle;Signal;HPM_P1;HPM_P2
2022/02/06 00:02:36;;;;;;;7.70;3.28;;;;;;;;;;7329198;19;153934;-15
2022/02/06 00:05:10;;;;;;;3.35;2.65;;;;;;;;;;7325074;19;153620;-15
2022/02/06 00:07:41;;;;;;;3.83;2.65;;;;;;;;;;7324149;19;162538;-15
2022/02/06 00:10:13;;;;;;;4.40;2.55;;;;;;;;;;7324263;19;162648;-15
2022/02/06 00:12:44;;;;;;;5.75;2.33;;;;;;;;;;7324567;19;154142;-15
2022/02/06 00:15:18;;;;;;;5.28;2.55;;;;;;;;;;7323927;19;153571;-15
2022/02/06 00:17:52;;;;;;;4.18;2.47;;;;;;;;;;7328120;19;161989;-15
2022/02/06 00:20:29;;;;;;;3.83;2.30;;;;;;;;;;7322885;19;162358;-15
2022/02/06 00:23:05;;;;;;;5.47;3.20;;;;;;;;;;7324999;19;154274;-16
2022/02/06 00:25:48;;;;;;;3.88;2.30;;;;;;;;;;7324895;19;153521;-15
2022/02/06 00:28:31;;;;;;;4.53;2.67;;;;;;;;;;7325708;19;162742;-14
2022/02/06 00:31:12;;;;;;;4.55;2.88;;;;;;;;;;7326095;19;162548;-14
2022/02/06 00:34:13;;;;;;;4.25;2.55;;;;;;;;;;7327327;19;154775;-14
2022/02/06 00:39:24;;;;;;;3.25;2.28;;;;;;;;;;7326187;19;162199;-14
2022/02/06 00:41:55;;;;;;;2.25;2.03;;;;;;;;;;7323828;19;163188;-14
2022/02/06 00:44:26;;;;;;;3.40;2.00;;;;;;;;;;7326911;19;154116;-14
2022/02/06 00:47:02;;;;;;;2.35;2.05;;;;;;;;;;7327335;19;153507;-15
2022/02/06 00:49:37;;;;;;;3.67;2.20;;;;;;;;;;7326236;19;162101;-15
2022/02/06 00:52:13;;;;;;;3.17;2.42;;;;;;;;;;7325585;19;162607;-14
2022/02/06 00:54:44;;;;;;;2.40;2.17;;;;;;;;;;7326235;19;154821;-15
2022/02/06 00:57:16;;;;;;;2.33;2.13;;;;;;;;;;7323380;19;153640;-14
2022/02/06 00:59:47;;;;;;;2.53;2.30;;;;;;;;;;7325771;19;162500;-15
2022/02/06 01:02:18;;;;;;;2.53;2.00;;;;;;;;;;7330649;19;162440;-15
2022/02/06 01:04:52;;;;;;;3.00;2.15;;;;;;;;;;7330103;19;153963;-15
2022/02/06 01:07:23;;;;;;;2.65;2.28;;;;;;;;;;7330988;19;154665;-14
2022/02/06 01:09:55;;;;;;;3.17;2.33;;;;;;;;;;7332045;19;161719;-16
2022/02/06 01:12:30;;;;;;;2.25;2.00;;;;;;;;;;7331134;19;162430;-14
2022/02/06 01:15:08;;;;;;;2.45;2.25;;;;;;;;;;7332166;19;154065;-15
2022/02/06 01:17:44;;;;;;;2.78;2.22;;;;;;;;;;7333549;19;153689;-15
2022/02/06 01:20:22;;;;;;;2.72;1.90;;;;;;;;;;7331847;19;161880;-16
2022/02/06 01:22:58;;;;;;;3.50;2.40;;;;;;;;;;7330730;19;163198;-14
2022/02/06 01:25:34;;;;;;;3.10;2.80;;;;;;;;;;7332778;19;154713;-15
2022/02/06 01:28:10;;;;;;;2.33;2.05;;;;;;;;;;7332285;19;153638;-16
2022/02/06 01:30:49;;;;;;;2.63;2.40;;;;;;;;;;7331988;19;161868;-14
2022/02/06 01:33:27;;;;;;;2.67;2.13;;;;;;;;;;7332941;19;163078;-15
2022/02/06 01:36:08;;;;;;;8.75;3.25;;;;;;;;;;7329727;19;154995;-15
2022/02/06 01:39:00;;;;;;;10.00;3.60;;;;;;;;;;7328247;19;153742;-15
2022/02/06 01:41:36;;;;;;;8.30;2.90;;;;;;;;;;7324318;19;161896;-19
2022/02/06 11:17:20;;;;;;;1.88;1.33;;;;;;;;;;7371396;19;132936;-19
2022/02/06 11:20:00;;;;;;;1.40;1.30;;;;;;;;;;7362392;19;154039;-17
2022/02/06 11:22:33;;;;;;;1.15;1.00;;;;;;;;;;7362163;19;161751;-17
2022/02/06 11:25:07;;;;;;;2.38;1.40;;;;;;;;;;7363997;19;162418;-17
2022/02/06 11:27:38;;;;;;;1.65;1.30;;;;;;;;;;7362078;19;153871;-19
2022/02/06 11:30:11;;;;;;;1.30;1.20;;;;;;;;;;7361854;19;153484;-18
2022/02/06 11:32:45;;;;;;;1.15;1.10;;;;;;;;;;7361326;19;162096;-18
2022/02/06 11:35:21;;;;;;;2.30;1.15;;;;;;;;;;7359920;19;162530;-17
2022/02/06 11:43:55;;;;;;;1.90;1.17;;;;;;;;;;7364141;19;161739;-17
2022/02/06 11:46:31;;;;;;;1.23;1.17;;;;;;;;;;7361354;19;162364;-16
2022/02/06 11:49:11;;;;;;;1.45;1.35;;;;;;;;;;7364804;19;154433;-23
2022/02/06 11:51:53;;;;;;;2.03;1.48;;;;;;;;;;7361417;19;153726;-17
2022/02/06 11:54:29;;;;;;;3.25;1.30;;;;;;;;;;7363789;19;162150;-17
2022/02/06 11:57:21;;;;;;;7.13;1.45;;;;;;;;;;7367486;19;162326;-16
2022/02/06 12:00:17;;;;;;;5.00;1.77;;;;;;;;;;7364839;19;153924;-18
2022/02/06 12:02:53;;;;;;;2.38;1.80;;;;;;;;;;7363307;19;153564;-17
2022/02/06 12:05:28;;;;;;;2.45;1.50;;;;;;;;;;7359288;19;162114;-17
2022/02/06 12:08:07;;;;;;;5.78;2.20;;;;;;;;;;7362872;19;162542;-18
2022/02/06 12:11:16;;;;;;;3.75;1.90;;;;;;;;;;7361919;19;154252;-18
2022/02/06 12:13:48;;;;;;;3.00;1.60;;;;;;;;;;7362144;19;153576;-18
2022/02/06 12:16:27;;;;;;;3.65;1.52;;;;;;;;;;7352115;19;162144;-21
2022/02/06 12:18:58;;;;;;;1.80;1.40;;;;;;;;;;7331406;19;162619;-17
2022/02/06 12:21:36;;;;;;;4.07;1.67;;;;;;;;;;7331616;19;154235;-17
2022/02/06 12:24:08;;;;;;;2.55;1.45;;;;;;;;;;7332543;19;153954;-17
2022/02/06 12:26:45;;;;;;;4.05;1.60;;;;;;;;;;7329468;19;161852;-17
2022/02/06 12:29:22;;;;;;;1.50;1.40;;;;;;;;;;7335486;19;162433;-18
2022/02/06 12:32:04;;;;;;;1.83;1.27;;;;;;;;;;7330017;19;154574;-17
2022/02/06 12:37:32;;;;;;;1.45;1.35;;;;;;;;;;7330878;19;161797;-16
2022/02/06 12:40:08;;;;;;;1.60;1.15;;;;;;;;;;7334597;19;162322;-17
2022/02/06 12:42:42;;;;;;;1.83;1.33;;;;;;;;;;7332918;19;154254;-17
2022/02/06 12:45:15;;;;;;;3.67;1.27;;;;;;;;;;7330305;19;153495;-17
2022/02/06 12:47:49;;;;;;;2.17;1.38;;;;;;;;;;7330626;19;162098;-17
2022/02/06 12:50:22;;;;;;;1.20;1.10;;;;;;;;;;7330654;19;162658;-17
2022/02/06 12:52:56;;;;;;;1.13;1.05;;;;;;;;;;7331670;19;153883;-17
2022/02/06 12:55:32;;;;;;;1.77;1.30;;;;;;;;;;7332790;19;153559;-18
2022/02/06 12:58:06;;;;;;;2.50;1.27;;;;;;;;;;7330095;19;162076;-17
2022/02/06 13:00:43;;;;;;;1.55;1.33;;;;;;;;;;7329977;19;162363;-17
2022/02/06 13:03:33;;;;;;;1.70;1.30;;;;;;;;;;7330558;19;153995;-17
2022/02/06 13:06:10;;;;;;;2.35;1.25;;;;;;;;;;7329573;19;153816;-17
2022/02/06 13:08:45;;;;;;;1.40;1.20;;;;;;;;;;7329922;19;161935;-17
2022/02/06 13:11:21;;;;;;;1.38;1.27;;;;;;;;;;7329673;19;162065;-18
2022/02/06 13:13:58;;;;;;;2.70;1.45;;;;;;;;;;7329939;19;154052;-17
2022/02/06 13:16:48;;;;;;;1.38;1.27;;;;;;;;;;7327982;19;153504;-17
2022/02/06 13:19:29;;;;;;;1.45;1.30;;;;;;;;;;7329882;19;162115;-18
2022/02/06 13:22:14;;;;;;;1.83;1.50;;;;;;;;;;7332737;19;162343;-18
2022/02/06 13:25:15;;;;;;;1.35;1.20;;;;;;;;;;7332115;19;153911;-16
2022/02/06 13:28:05;;;;;;;3.28;1.30;;;;;;;;;;7323376;19;153543;-18
2022/02/06 13:33:36;;;;;;;1.45;1.35;;;;;;;;;;7331867;19;162479;-17
2022/02/06 13:36:19;;;;;;;1.63;1.30;;;;;;;;;;7330497;19;154361;-16
2022/02/06 13:38:54;;;;;;;1.80;1.05;;;;;;;;;;7332188;19;153711;-16
2022/02/06 13:41:32;;;;;;;1.65;1.10;;;;;;;;;;7329814;19;162478;-16
2022/02/06 13:44:04;;;;;;;1.27;1.17;;;;;;;;;;7327497;19;162618;-17
2022/02/06 13:46:38;;;;;;;1.77;1.48;;;;;;;;;;7331310;19;154153;-17
2022/02/06 13:49:09;;;;;;;1.70;1.15;;;;;;;;;;7328139;19;153488;-16
2022/02/06 13:51:45;;;;;;;1.20;1.00;;;;;;;;;;7323286;19;161812;-16
2022/02/06 13:54:19;;;;;;;1.23;1.10;;;;;;;;;;7324599;19;163057;-17
2022/02/06 13:57:01;;;;;;;1.13;1.10;;;;;;;;;;7326730;19;153915;-17
2022/02/06 13:59:38;;;;;;;2.30;1.20;;;;;;;;;;7329017;19;153481;-16
2022/02/06 14:02:10;;;;;;;2.20;1.20;;;;;;;;;;7329629;19;162009;-16
2022/02/06 14:04:49;;;;;;;1.60;1.35;;;;;;;;;;7329983;19;162691;-16
2022/02/06 14:07:23;;;;;;;1.77;1.20;;;;;;;;;;7329715;19;154000;-16
2022/02/06 14:10:04;;;;;;;1.27;1.17;;;;;;;;;;7328574;19;153508;-17
2022/02/06 14:12:55;;;;;;;2.25;1.52;;;;;;;;;;7326046;19;162183;-16
2022/02/06 14:15:27;;;;;;;1.45;1.15;;;;;;;;;;7325360;19;162361;-18
2022/02/06 14:18:07;;;;;;;1.40;1.30;;;;;;;;;;7327912;19;154330;-17
2022/02/06 14:20:38;;;;;;;1.30;1.20;;;;;;;;;;7325870;19;153863;-17
2022/02/06 14:23:18;;;;;;;1.45;1.35;;;;;;;;;;7325890;19;162097;-18
2022/02/06 14:25:49;;;;;;;2.22;1.30;;;;;;;;;;7330237;19;162569;-18
2022/02/06 14:28:26;;;;;;;1.90;1.20;;;;;;;;;;7329886;19;153944;-18
2022/02/06 14:30:58;;;;;;;1.67;1.10;;;;;;;;;;7328063;19;153774;-17
2022/02/06 14:33:33;;;;;;;1.30;1.20;;;;;;;;;;7326280;19;161793;-17
2022/02/06 14:36:07;;;;;;;1.90;0.95;;;;;;;;;;7332449;19;162361;-17
2022/02/06 14:38:42;;;;;;;3.17;1.00;;;;;;;;;;7328591;19;154133;-18
2022/02/06 14:41:25;;;;;;;1.70;1.42;;;;;;;;;;7329321;19;153772;-18
2022/02/06 14:44:01;;;;;;;1.38;1.10;;;;;;;;;;7328192;19;162051;-18
2022/02/06 14:46:34;;;;;;;1.13;1.02;;;;;;;;;;7327112;19;162508;-18
2022/02/06 14:49:09;;;;;;;1.63;1.13;;;;;;;;;;7332411;19;153995;-18
2022/02/06 14:51:42;;;;;;;1.77;1.27;;;;;;;;;;7327595;19;153502;-17
2022/02/06 14:54:20;;;;;;;2.67;1.17;;;;;;;;;;7326890;19;161954;-17
2022/02/06 14:56:52;;;;;;;1.40;1.15;;;;;;;;;;7326656;19;162451;-17
2022/02/06 14:59:26;;;;;;;1.42;1.10;;;;;;;;;;7326962;19;154127;-16
2022/02/06 15:01:57;;;;;;;1.05;1.00;;;;;;;;;;7326592;19;154236;-17
2022/02/06 15:04:29;;;;;;;2.05;1.20;;;;;;;;;;7325628;19;161838;-17
2022/02/06 15:07:00;;;;;;;1.60;1.38;;;;;;;;;;7326892;19;162491;-17
2022/02/06 15:09:32;;;;;;;1.67;1.20;;;;;;;;;;7326972;19;154238;-17
2022/02/06 15:12:03;;;;;;;1.15;1.08;;;;;;;;;;7325228;19;153687;-17
2022/02/06 15:14:37;;;;;;;1.15;1.10;;;;;;;;;;7331533;19;162070;-17
2022/02/06 15:17:10;;;;;;;3.80;1.63;;;;;;;;;;7327443;19;162399;-17
2022/02/06 15:19:42;;;;;;;1.58;1.33;;;;;;;;;;7326065;19;154270;-17
2022/02/06 15:22:13;;;;;;;1.02;0.98;;;;;;;;;;7325623;19;153799;-21
2022/02/06 15:24:44;;;;;;;1.83;1.23;;;;;;;;;;7325412;19;161814;-17
2022/02/06 15:27:16;;;;;;;1.35;1.20;;;;;;;;;;7323175;19;162723;-18
2022/02/06 15:29:50;;;;;;;3.60;1.10;;;;;;;;;;7325315;19;153907;-19
2022/02/06 15:32:22;;;;;;;1.10;1.00;;;;;;;;;;7325930;19;153561;-18
2022/02/06 15:34:53;;;;;;;3.33;1.35;;;;;;;;;;7325543;19;161968;-18
2022/02/06 15:37:29;;;;;;;2.22;1.27;;;;;;;;;;7325648;19;162402;-17
2022/02/06 15:40:02;;;;;;;0.90;0.90;;;;;;;;;;7326228;19;154032;-17
2022/02/06 15:42:34;;;;;;;1.20;1.10;;;;;;;;;;7325093;19;153529;-27
2022/02/06 15:45:08;;;;;;;1.70;1.60;;;;;;;;;;7330433;19;162027;-17
2022/02/06 15:47:40;;;;;;;3.58;2.47;;;;;;;;;;7325917;19;162518;-18
2022/02/06 15:50:12;;;;;;;4.95;2.13;;;;;;;;;;7325873;19;154069;-17
2022/02/06 15:52:46;;;;;;;2.88;1.95;;;;;;;;;;7330030;19;153544;-17
2022/02/06 15:55:17;;;;;;;3.47;1.65;;;;;;;;;;7332039;19;161951;-19
2022/02/06 15:57:48;;;;;;;6.20;1.70;;;;;;;;;;7332270;19;162370;-17
2022/02/06 16:00:22;;;;;;;5.22;1.60;;;;;;;;;;7336485;19;154154;-17
2022/02/06 16:02:54;;;;;;;3.05;1.80;;;;;;;;;;7333346;19;154046;-18
2022/02/06 16:05:25;;;;;;;3.25;1.55;;;;;;;;;;7332346;19;162003;-17
2022/02/06 16:07:56;;;;;;;3.13;1.58;;;;;;;;;;7332257;19;162610;-17
2022/02/06 16:10:28;;;;;;;9.48;2.35;;;;;;;;;;7332778;19;153954;-17
2022/02/06 16:12:59;;;;;;;14.85;2.50;;;;;;;;;;7332852;19;153606;-17
2022/02/06 16:15:36;;;;;;;10.23;2.50;;;;;;;;;;7331293;19;161828;-17
2022/02/06 16:18:07;;;;;;;12.82;2.15;;;;;;;;;;7333741;19;162520;-17
2022/02/06 16:20:39;;;;;;;11.00;2.22;;;;;;;;;;7332109;19;153957;-16
2022/02/06 16:23:10;;;;;;;5.57;1.92;;;;;;;;;;7331420;19;153675;-18
2022/02/06 16:25:42;;;;;;;10.48;2.22;;;;;;;;;;7331031;19;162046;-19
2022/02/06 16:28:13;;;;;;;9.05;2.28;;;;;;;;;;7330953;19;162612;-17
2022/02/06 16:30:49;;;;;;;6.97;2.30;;;;;;;;;;7331143;19;153950;-17
2022/02/06 16:33:20;;;;;;;8.10;2.10;;;;;;;;;;7334253;19;153722;-18
2022/02/06 16:35:51;;;;;;;8.02;1.67;;;;;;;;;;7330766;19;161840;-17
2022/02/06 16:38:31;;;;;;;9.00;2.28;;;;;;;;;;7330665;19;162363;-18
2022/02/06 16:41:03;;;;;;;6.07;1.65;;;;;;;;;;7331464;19;154961;-17
2022/02/06 16:43:35;;;;;;;9.95;1.92;;;;;;;;;;7331159;19;153514;-18
2022/02/06 16:46:09;;;;;;;5.70;1.80;;;;;;;;;;7328800;19;162045;-17
2022/02/06 16:48:41;;;;;;;6.03;2.22;;;;;;;;;;7335579;19;162618;-18
2022/02/06 16:51:12;;;;;;;10.23;2.38;;;;;;;;;;7333307;19;153948;-17
2022/02/06 16:53:45;;;;;;;22.05;3.88;;;;;;;;;;7333206;19;153701;-18
2022/02/06 16:56:16;;;;;;;;;;;;;;;;;;7336337;19;162543;-16
2022/02/06 16:58:48;;;;;;;8.25;1.98;;;;;;;;;;7336113;19;162478;-17
2022/02/06 17:01:22;;;;;;;13.65;2.58;;;;;;;;;;7334054;19;154324;-18
2022/02/06 17:03:53;;;;;;;7.05;1.80;;;;;;;;;;7336284;19;153665;-18
2022/02/06 17:06:24;;;;;;;9.40;2.20;;;;;;;;;;7331379;19;161975;-18
2022/02/06 17:08:55;;;;;;;9.25;2.42;;;;;;;;;;7331736;19;162354;-18
2022/02/06 17:11:27;;;;;;;9.05;2.42;;;;;;;;;;7331625;19;154133;-18
2022/02/06 17:13:58;;;;;;;6.60;1.80;;;;;;;;;;7332758;19;153518;-19
2022/02/06 17:16:33;;;;;;;9.98;2.05;;;;;;;;;;7328857;19;163658;-19
2022/02/06 17:19:14;;;;;;;6.07;1.90;;;;;;;;;;7336892;19;162610;-20
2022/02/06 17:21:46;;;;;;;7.85;2.20;;;;;;;;;;7331505;19;154130;-17
2022/02/06 17:24:20;;;;;;;8.00;2.00;;;;;;;;;;7332319;19;153580;-18
2022/02/06 17:26:51;;;;;;;8.45;1.70;;;;;;;;;;7334151;19;161988;-16
2022/02/06 17:29:23;;;;;;;5.97;1.70;;;;;;;;;;7331094;19;162540;-18
2022/02/06 17:31:57;;;;;;;5.68;1.95;;;;;;;;;;7334391;19;153978;-17
2022/02/06 17:34:29;;;;;;;5.55;1.85;;;;;;;;;;7333118;19;153750;-19
2022/02/06 17:37:00;;;;;;;7.20;1.65;;;;;;;;;;7331451;19;161846;-18
2022/02/06 17:39:31;;;;;;;8.13;2.13;;;;;;;;;;7331401;19;162520;-18
2022/02/06 17:42:04;;;;;;;4.22;1.80;;;;;;;;;;7331720;19;153965;-18
2022/02/06 17:44:35;;;;;;;6.05;1.70;;;;;;;;;;7334494;19;153668;-19
2022/02/06 17:47:10;;;;;;;2.70;1.60;;;;;;;;;;7330594;19;161837;-19
2022/02/06 17:49:41;;;;;;;7.40;2.00;;;;;;;;;;7329040;19;162777;-19
2022/02/06 17:52:13;;;;;;;10.07;1.83;;;;;;;;;;7330283;19;154308;-18
2022/02/06 17:54:48;;;;;;;3.20;1.60;;;;;;;;;;7330461;19;153703;-19
2022/02/06 17:57:19;;;;;;;4.47;1.63;;;;;;;;;;7331081;19;161830;-18
2022/02/06 17:59:50;;;;;;;3.25;1.83;;;;;;;;;;7329474;19;162379;-19
2022/02/06 18:02:24;;;;;;;3.78;1.67;;;;;;;;;;7331389;19;153982;-18
2022/02/06 18:04:56;;;;;;;5.30;1.50;;;;;;;;;;7331336;19;153665;-24
2022/02/06 18:07:27;;;;;;;3.65;2.08;;;;;;;;;;7330976;19;161907;-18
2022/02/06 18:09:59;;;;;;;4.45;1.75;;;;;;;;;;7329669;19;162598;-17
2022/02/06 18:12:30;;;;;;;3.90;1.80;;;;;;;;;;7329982;19;154198;-19
2022/02/06 18:15:01;;;;;;;3.63;1.70;;;;;;;;;;7328827;19;154050;-17
2022/02/06 18:17:36;;;;;;;8.87;2.40;;;;;;;;;;7330583;19;161950;-18
2022/02/06 18:20:09;;;;;;;6.30;1.80;;;;;;;;;;7330338;19;162431;-18
2022/02/06 18:22:41;;;;;;;6.40;2.13;;;;;;;;;;7329605;19;154177;-17
2022/02/06 18:25:12;;;;;;;3.22;1.90;;;;;;;;;;7329439;19;153537;-17
2022/02/06 18:27:44;;;;;;;5.22;1.60;;;;;;;;;;7330306;19;161882;-18
2022/02/06 18:30:16;;;;;;;3.13;1.73;;;;;;;;;;7327889;19;162385;-19
2022/02/06 18:32:50;;;;;;;3.83;1.80;;;;;;;;;;7330599;19;154128;-18
2022/02/06 18:35:21;;;;;;;2.70;1.90;;;;;;;;;;7330409;19;153503;-19
2022/02/06 18:37:53;;;;;;;3.28;2.25;;;;;;;;;;7330076;19;161917;-18
2022/02/06 18:40:26;;;;;;;4.97;2.10;;;;;;;;;;7329979;19;162331;-19
2022/02/06 18:42:57;;;;;;;5.15;3.00;;;;;;;;;;7330446;19;154019;-17
2022/02/06 18:45:29;;;;;;;5.40;2.67;;;;;;;;;;7330169;19;153637;-18
2022/02/06 18:48:03;;;;;;;2.55;2.05;;;;;;;;;;7328335;19;161870;-18
2022/02/06 18:50:34;;;;;;;5.07;2.47;;;;;;;;;;7328126;19;162625;-18
2022/02/06 18:53:07;;;;;;;2.45;2.05;;;;;;;;;;7329981;19;153964;-17
2022/02/06 18:55:38;;;;;;;3.10;1.77;;;;;;;;;;7328434;19;153563;-17
2022/02/06 18:58:13;;;;;;;4.13;2.17;;;;;;;;;;7329318;19;162060;-17
2022/02/06 19:00:44;;;;;;;2.25;1.98;;;;;;;;;;7329337;19;162523;-18
2022/02/06 19:03:19;;;;;;;3.28;2.10;;;;;;;;;;7329591;19;154778;-17
2022/02/06 19:05:51;;;;;;;3.67;2.05;;;;;;;;;;7328220;19;153675;-18
2022/02/06 19:08:23;;;;;;;3.35;2.25;;;;;;;;;;7328843;19;161860;-19
2022/02/06 19:10:59;;;;;;;2.67;2.00;;;;;;;;;;7327110;19;162501;-18
2022/02/06 19:13:30;;;;;;;3.30;2.38;;;;;;;;;;7329292;19;154124;-19
2022/02/06 19:16:01;;;;;;;5.88;2.33;;;;;;;;;;7327061;19;153622;-18
2022/02/06 19:18:35;;;;;;;4.13;2.35;;;;;;;;;;7328533;19;161799;-20
2022/02/06 19:21:08;;;;;;;4.68;2.17;;;;;;;;;;7328712;19;162606;-19
2022/02/06 19:23:40;;;;;;;;;;;;;;;;;;7329319;19;153945;-18
2022/02/06 19:26:13;;;;;;;4.82;2.33;;;;;;;;;;7328770;19;153624;-19
2022/02/06 19:28:45;;;;;;;5.20;2.63;;;;;;;;;;7335252;19;162172;-17
2022/02/06 19:31:17;;;;;;;5.07;2.10;;;;;;;;;;7333877;19;163055;-19
2022/02/06 19:33:51;;;;;;;4.45;2.30;;;;;;;;;;7335534;19;154338;-18
2022/02/06 19:36:22;;;;;;;3.35;2.28;;;;;;;;;;7335300;19;153632;-19
2022/02/06 19:38:56;;;;;;;3.67;2.13;;;;;;;;;;7334826;19;161960;-19
2022/02/06 19:41:29;;;;;;;3.95;2.70;;;;;;;;;;7334811;19;162644;-18
2022/02/06 19:44:00;;;;;;;4.18;2.33;;;;;;;;;;7334809;19;154100;-18
2022/02/06 19:46:33;;;;;;;6.38;2.75;;;;;;;;;;7336490;19;153540;-19
2022/02/06 19:49:07;;;;;;;4.57;2.50;;;;;;;;;;7338941;19;162128;-18
2022/02/06 19:51:39;;;;;;;3.30;2.22;;;;;;;;;;7333321;19;162422;-18
2022/02/06 19:54:10;;;;;;;9.30;2.67;;;;;;;;;;7335079;19;154069;-18
2022/02/06 19:56:42;;;;;;;3.50;2.28;;;;;;;;;;7333928;19;153582;-18
2022/02/06 19:59:14;;;;;;;5.68;2.22;;;;;;;;;;7333955;19;161897;-19
2022/02/06 20:01:45;;;;;;;4.50;2.53;;;;;;;;;;7335965;19;162558;-19
2022/02/06 20:04:19;;;;;;;7.55;2.90;;;;;;;;;;7335945;19;154317;-18
2022/02/06 20:06:55;;;;;;;4.28;2.58;;;;;;;;;;7333175;19;153677;-19
2022/02/06 20:09:27;;;;;;;3.95;2.20;;;;;;;;;;7332844;19;162179;-18
2022/02/06 20:11:59;;;;;;;4.65;2.45;;;;;;;;;;7332202;19;162473;-18
2022/02/06 20:14:31;;;;;;;4.60;2.03;;;;;;;;;;7334536;19;154065;-19
2022/02/06 20:17:02;;;;;;;3.90;2.10;;;;;;;;;;7331821;19;153574;-19
2022/02/06 20:19:36;;;;;;;5.97;2.25;;;;;;;;;;7332811;19;161879;-17
2022/02/06 20:22:08;;;;;;;4.70;2.50;;;;;;;;;;7333663;19;162437;-17
2022/02/06 20:24:40;;;;;;;2.40;2.20;;;;;;;;;;7332739;19;154210;-18
2022/02/06 20:27:14;;;;;;;3.60;2.20;;;;;;;;;;7333072;19;153744;-18
2022/02/06 20:29:47;;;;;;;6.40;2.50;;;;;;;;;;7333698;19;163396;-18
2022/02/06 20:32:19;;;;;;;4.07;2.75;;;;;;;;;;7331967;19;162416;-17
2022/02/06 20:34:54;;;;;;;4.35;2.35;;;;;;;;;;7334445;19;154072;-16
2022/02/06 20:37:25;;;;;;;4.00;2.05;;;;;;;;;;7333142;19;153605;-18
2022/02/06 20:39:57;;;;;;;4.68;2.20;;;;;;;;;;7333582;19;161785;-19
2022/02/06 20:42:28;;;;;;;6.18;2.47;;;;;;;;;;7333813;19;162753;-19
2022/02/06 20:45:00;;;;;;;3.22;2.55;;;;;;;;;;7336278;19;154006;-18
2022/02/06 20:47:31;;;;;;;5.57;2.40;;;;;;;;;;7336615;19;153470;-18
2022/02/06 20:50:05;;;;;;;2.30;2.10;;;;;;;;;;7336220;19;162148;-18
2022/02/06 20:52:39;;;;;;;4.25;2.60;;;;;;;;;;7331692;19;162757;-19
2022/02/06 20:55:13;;;;;;;2.70;2.20;;;;;;;;;;7336031;19;153955;-19
2022/02/06 20:57:44;;;;;;;4.70;2.03;;;;;;;;;;7332971;19;153448;-17
2022/02/06 21:00:18;;;;;;;7.18;2.40;;;;;;;;;;7336244;19;162015;-18
2022/02/06 21:02:49;;;;;;;7.32;4.05;;;;;;;;;;7332654;19;162664;-18
2022/02/06 21:05:23;;;;;;;5.93;3.40;;;;;;;;;;7332820;19;153901;-17
2022/02/06 21:07:56;;;;;;;4.63;3.20;;;;;;;;;;7335799;19;153545;-17
2022/02/06 21:10:28;;;;;;;3.10;2.78;;;;;;;;;;7333134;19;161846;-19
2022/02/06 21:13:02;;;;;;;4.05;2.95;;;;;;;;;;7333325;19;162658;-18
2022/02/06 21:15:33;;;;;;;4.60;2.85;;;;;;;;;;7331538;19;154239;-18
2022/02/06 21:18:05;;;;;;;5.75;2.70;;;;;;;;;;7332796;19;153553;-17
2022/02/06 21:20:39;;;;;;;2.63;2.30;;;;;;;;;;7333976;19;164232;-18
2022/02/06 21:23:10;;;;;;;2.67;2.47;;;;;;;;;;7334878;19;163113;-19
2022/02/06 21:25:42;;;;;;;3.17;2.88;;;;;;;;;;7335147;19;154233;-18
2022/02/06 21:28:16;;;;;;;5.50;3.40;;;;;;;;;;7334095;19;153670;-18
2022/02/06 21:30:47;;;;;;;3.53;2.80;;;;;;;;;;7331528;19;161990;-18
2022/02/06 21:33:22;;;;;;;9.60;2.70;;;;;;;;;;7333719;19;162403;-17
2022/02/06 21:35:56;;;;;;;6.25;3.05;;;;;;;;;;7332098;19;154398;-17
2022/02/06 21:38:28;;;;;;;5.25;2.47;;;;;;;;;;7332019;19;153507;-18
2022/02/06 21:41:00;;;;;;;5.03;2.85;;;;;;;;;;7332324;19;162075;-18
2022/02/06 21:43:32;;;;;;;4.32;2.38;;;;;;;;;;7331117;19;162803;-18
2022/02/06 21:46:03;;;;;;;4.18;2.45;;;;;;;;;;7333388;19;154065;-19
2022/02/06 21:48:35;;;;;;;3.65;2.40;;;;;;;;;;7330338;19;153616;-18
2022/02/06 21:51:09;;;;;;;4.05;2.33;;;;;;;;;;7332218;19;161906;-19
2022/02/06 21:53:41;;;;;;;4.82;2.50;;;;;;;;;;7330512;19;162992;-16
2022/02/06 21:56:12;;;;;;;3.67;2.40;;;;;;;;;;7334025;19;154098;-18
2022/02/06 21:58:43;;;;;;;3.03;2.50;;;;;;;;;;7334091;19;153530;-18
2022/02/06 22:01:15;;;;;;;3.70;2.40;;;;;;;;;;7333641;19;161829;-19
2022/02/06 22:03:47;;;;;;;4.40;2.58;;;;;;;;;;7334292;19;162518;-19
2022/02/06 22:06:27;;;;;;;2.70;2.45;;;;;;;;;;7333954;19;154282;-16
2022/02/06 22:09:03;;;;;;;3.20;2.22;;;;;;;;;;7334301;19;153847;-18
2022/02/06 22:28:49;;;;;;;3.65;2.40;;;;;;;;;;7332327;19;162660;-18
2022/02/06 22:31:12;;;;;;;6.82;2.85;;;;;;;;;;7333540;19;153506;-17
2022/02/06 22:33:44;;;;;;;2.70;2.47;;;;;;;;;;7329723;19;161777;-17
2022/02/06 22:36:17;;;;;;;5.88;2.30;;;;;;;;;;7332656;19;162406;-18
2022/02/06 22:38:51;;;;;;;4.05;2.45;;;;;;;;;;7326938;19;154334;-17
2022/02/06 22:41:26;;;;;;;4.75;2.30;;;;;;;;;;7324370;19;153551;-19
2022/02/06 22:43:59;;;;;;;3.70;2.20;;;;;;;;;;7327150;19;163355;-18
2022/02/06 22:46:31;;;;;;;5.13;2.78;;;;;;;;;;7328467;19;162436;-18
2022/02/06 22:49:02;;;;;;;2.72;2.17;;;;;;;;;;7327055;19;154050;-18
2022/02/06 22:51:35;;;;;;;2.92;2.47;;;;;;;;;;7333594;19;153565;-18
2022/02/06 22:54:11;;;;;;;3.55;2.50;;;;;;;;;;7325399;19;162207;-18
2022/02/06 22:56:43;;;;;;;2.33;2.13;;;;;;;;;;7328256;19;162450;-19
2022/02/06 22:59:15;;;;;;;3.03;2.17;;;;;;;;;;7330371;19;153975;-18
2022/02/06 23:01:46;;;;;;;2.63;1.85;;;;;;;;;;7323828;19;153464;-19
2022/02/06 23:04:18;;;;;;;2.88;2.20;;;;;;;;;;7331860;19;161859;-18
2022/02/06 23:06:49;;;;;;;5.97;2.28;;;;;;;;;;7330359;19;162140;-18
2022/02/06 23:09:25;;;;;;;4.47;2.10;;;;;;;;;;7332597;19;154108;-16
2022/02/06 23:11:56;;;;;;;3.38;2.25;;;;;;;;;;7328161;19;153491;-17
2022/02/06 23:14:30;;;;;;;2.67;2.38;;;;;;;;;;7328135;19;161918;-19
2022/02/06 23:17:01;;;;;;;4.30;1.92;;;;;;;;;;7328391;19;163324;-18
2022/02/06 23:19:33;;;;;;;3.33;1.98;;;;;;;;;;7332087;19;154261;-17
2022/02/06 23:22:05;;;;;;;3.58;1.92;;;;;;;;;;7326660;19;153887;-18
2022/02/06 23:24:39;;;;;;;3.03;2.00;;;;;;;;;;7327295;19;161784;-17
2022/02/06 23:27:10;;;;;;;2.08;1.88;;;;;;;;;;7327804;19;162633;-18
2022/02/06 23:29:42;;;;;;;8.82;4.05;;;;;;;;;;7329703;19;154051;-18
2022/02/06 23:32:13;;;;;;;3.88;2.97;;;;;;;;;;7328235;19;153561;-18
2022/02/06 23:34:45;;;;;;;5.25;3.35;;;;;;;;;;7324117;19;161818;-19
2022/02/06 23:37:16;;;;;;;4.70;2.88;;;;;;;;;;7330976;19;162658;-18
2022/02/06 23:39:52;;;;;;;9.07;2.78;;;;;;;;;;7328620;19;153977;-16
2022/02/06 23:42:24;;;;;;;7.95;2.70;;;;;;;;;;7330729;19;153691;-17
2022/02/06 23:44:57;;;;;;;6.03;3.10;;;;;;;;;;7331609;19;162094;-18
2022/02/06 23:47:28;;;;;;;8.43;3.45;;;;;;;;;;7329844;19;162793;-18
2022/02/06 23:49:59;;;;;;;4.82;3.05;;;;;;;;;;7330296;19;154199;-17
2022/02/06 23:52:35;;;;;;;4.40;2.88;;;;;;;;;;7331481;19;153498;-17
2022/02/06 23:55:16;;;;;;;5.68;3.42;;;;;;;;;;7327929;19;161791;-18
2022/02/06 23:57:55;;;;;;;6.43;3.58;;;;;;;;;;7331408;19;162525;-18
